createdAt,value
2023-11-30T00:01:26.705Z,0.20
2023-11-30T00:03:29.607Z,0.21
2023-11-30T00:05:32.511Z,0.27
2023-11-30T00:07:37.095Z,0.23
2023-11-30T00:09:40.257Z,0.17
2023-11-30T00:11:43.115Z,0.20
2023-11-30T00:13:45.868Z,0.23
2023-11-30T00:15:48.007Z,0.20
2023-11-30T00:17:50.960Z,0.25
2023-11-30T00:19:53.778Z,0.27
2023-11-30T00:21:56.579Z,0.28
2023-11-30T00:24:01.056Z,0.30
2023-11-30T00:26:03.862Z,0.37
2023-11-30T00:28:06.943Z,0.34
2023-11-30T00:30:11.219Z,0.35
2023-11-30T00:32:13.297Z,0.32
2023-11-30T00:34:16.226Z,0.33
2023-11-30T00:36:19.031Z,0.39
2023-11-30T00:38:22.206Z,0.38
2023-11-30T00:40:26.438Z,0.37
2023-11-30T00:42:29.302Z,0.34
2023-11-30T00:44:32.205Z,0.34
2023-11-30T00:46:35.353Z,0.35
2023-11-30T00:48:38.188Z,0.33
2023-11-30T00:50:40.999Z,0.32
2023-11-30T00:52:43.891Z,0.23
2023-11-30T00:54:46.673Z,0.19
2023-11-30T00:56:50.897Z,0.14
2023-11-30T00:58:53.797Z,0.06
2023-11-30T01:00:57.571Z,0.04
2023-11-30T01:03:00.390Z,-0.01
2023-11-30T01:05:03.318Z,-0.04
2023-11-30T01:07:05.363Z,0.00
2023-11-30T01:09:08.424Z,0.00
2023-11-30T01:11:12.313Z,-0.03
2023-11-30T01:13:17.148Z,-0.05
2023-11-30T01:15:20.955Z,-0.08
2023-11-30T01:17:24.006Z,-0.09
2023-11-30T01:19:26.856Z,-0.13
2023-11-30T01:21:29.759Z,-0.14
2023-11-30T01:23:33.734Z,-0.18
2023-11-30T01:25:36.548Z,-0.23
2023-11-30T01:27:39.394Z,-0.30
2023-11-30T01:29:42.649Z,-0.39
2023-11-30T01:31:45.682Z,-0.43
2023-11-30T01:33:48.706Z,-0.40
2023-11-30T01:35:51.733Z,-0.38
2023-11-30T01:37:54.618Z,-0.42
2023-11-30T01:39:57.567Z,-0.43
2023-11-30T01:42:01.929Z,-0.48
2023-11-30T01:44:05.937Z,-0.47
2023-11-30T01:46:11.029Z,-0.50
2023-11-30T01:48:14.840Z,-0.60
2023-11-30T01:50:18.521Z,-0.75
2023-11-30T01:52:21.422Z,-0.79
2023-11-30T01:54:25.306Z,-0.76
2023-11-30T01:56:30.012Z,-0.73
2023-11-30T01:58:33.507Z,-0.69
2023-11-30T02:00:38.440Z,-0.73
2023-11-30T02:02:43.335Z,-0.81
2023-11-30T02:04:53.161Z,-0.83
2023-11-30T02:06:57.271Z,-0.88
2023-11-30T02:09:00.411Z,-0.88
2023-11-30T02:11:02.352Z,-0.93
2023-11-30T02:13:05.222Z,-0.92
2023-11-30T02:15:11.966Z,-0.96
2023-11-30T02:17:20.481Z,-0.99
2023-11-30T02:19:24.701Z,-1.00
2023-11-30T02:21:27.627Z,-0.95
2023-11-30T02:23:31.787Z,-0.97
2023-11-30T02:25:34.618Z,-0.97
2023-11-30T02:27:37.618Z,-1.02
2023-11-30T02:29:39.425Z,-1.02
2023-11-30T02:31:42.243Z,-1.03
2023-11-30T02:33:45.109Z,-0.97
2023-11-30T02:35:47.955Z,-1.00
2023-11-30T02:37:50.776Z,-1.00
2023-11-30T02:39:53.920Z,-1.04
2023-11-30T02:41:56.727Z,-1.00
2023-11-30T02:43:59.649Z,-0.97
2023-11-30T02:46:02.615Z,-0.95
2023-11-30T02:48:05.751Z,-1.01
2023-11-30T02:50:10.218Z,-1.05
2023-11-30T02:52:13.153Z,-1.04
2023-11-30T02:54:15.987Z,-1.01
2023-11-30T02:56:20.147Z,-0.97
2023-11-30T02:58:22.976Z,-0.89
2023-11-30T03:00:25.788Z,-0.91
2023-11-30T03:02:29.651Z,-0.89
2023-11-30T03:04:32.735Z,-0.86
2023-11-30T03:06:34.698Z,-0.78
2023-11-30T03:08:37.498Z,-0.76
2023-11-30T03:10:40.271Z,-0.70
2023-11-30T03:12:44.036Z,-0.62
2023-11-30T03:14:46.877Z,-0.58
2023-11-30T03:16:49.636Z,-0.59
2023-11-30T03:19:02.454Z,-0.59
2023-11-30T03:21:19.947Z,-0.59
2023-11-30T03:23:22.712Z,-0.57
2023-11-30T03:25:25.477Z,-0.55
2023-11-30T03:27:28.333Z,-0.54
2023-11-30T03:29:32.524Z,-0.54
2023-11-30T03:31:37.644Z,-0.58
2023-11-30T03:33:43.086Z,-0.61
2023-11-30T03:35:46.606Z,-0.62
2023-11-30T03:37:49.869Z,-0.63
2023-11-30T03:39:53.289Z,-0.62
2023-11-30T03:41:56.175Z,-0.57
2023-11-30T03:43:58.998Z,-0.63
2023-11-30T03:46:03.203Z,-0.69
2023-11-30T03:48:07.540Z,-0.64
2023-11-30T03:50:10.953Z,-0.60
2023-11-30T03:52:13.901Z,-0.63
2023-11-30T03:54:16.840Z,-0.66
2023-11-30T03:56:19.808Z,-0.57
2023-11-30T03:58:22.581Z,-0.58
2023-11-30T04:00:24.810Z,-0.56
2023-11-30T04:02:29.082Z,-0.59
2023-11-30T04:04:32.036Z,-0.60
2023-11-30T04:06:36.213Z,-0.60
2023-11-30T04:08:38.092Z,-0.73
2023-11-30T04:10:40.871Z,-0.83
2023-11-30T04:12:43.677Z,-0.86
2023-11-30T04:14:46.468Z,-0.87
2023-11-30T04:16:49.404Z,-0.89
2023-11-30T04:18:53.688Z,-0.86
2023-11-30T04:20:56.877Z,-0.83
2023-11-30T04:22:59.658Z,-0.79
2023-11-30T04:25:01.612Z,-0.78
2023-11-30T04:27:04.771Z,-0.75
2023-11-30T04:29:06.698Z,-0.68
2023-11-30T04:31:10.386Z,-0.65
2023-11-30T04:33:14.414Z,-0.58
2023-11-30T04:35:18.718Z,-0.53
2023-11-30T04:37:21.531Z,-0.49
2023-11-30T04:39:24.339Z,-0.49
2023-11-30T04:41:28.820Z,-0.55
2023-11-30T04:43:32.746Z,-0.53
2023-11-30T04:45:35.569Z,-0.49
2023-11-30T04:47:38.511Z,-0.41
2023-11-30T04:49:41.411Z,-0.46
2023-11-30T04:51:45.569Z,-0.47
2023-11-30T04:53:47.929Z,-0.40
2023-11-30T04:55:50.757Z,-0.40
2023-11-30T04:57:54.750Z,-0.35
2023-11-30T04:59:57.623Z,-0.34
2023-11-30T05:01:59.831Z,-0.29
2023-11-30T05:04:03.728Z,-0.31
2023-11-30T05:06:06.526Z,-0.33
2023-11-30T05:08:11.809Z,-0.30
2023-11-30T05:10:15.430Z,-0.28
2023-11-30T05:12:18.489Z,-0.25
2023-11-30T05:14:20.362Z,-0.22
2023-11-30T05:16:23.209Z,-0.22
2023-11-30T05:18:26.034Z,-0.23
2023-11-30T05:20:28.831Z,-0.24
2023-11-30T05:22:32.348Z,-0.20
2023-11-30T05:24:36.506Z,-0.19
2023-11-30T05:26:39.269Z,-0.18
2023-11-30T05:28:42.611Z,-0.16
2023-11-30T05:30:45.451Z,-0.16
2023-11-30T05:32:48.330Z,-0.21
2023-11-30T05:34:52.803Z,-0.23
2023-11-30T05:36:55.542Z,-0.20
2023-11-30T05:38:58.646Z,-0.13
2023-11-30T05:41:02.879Z,-0.11
2023-11-30T05:43:06.270Z,-0.08
2023-11-30T05:45:09.757Z,-0.09
2023-11-30T05:47:11.701Z,-0.13
2023-11-30T05:49:14.673Z,-0.10
2023-11-30T05:51:17.577Z,-0.09
2023-11-30T05:53:20.340Z,-0.10
2023-11-30T05:55:23.316Z,-0.06
2023-11-30T05:57:27.500Z,-0.05
2023-11-30T05:59:30.286Z,-0.07
2023-11-30T06:01:33.197Z,-0.05
2023-11-30T06:03:36.274Z,-0.02
2023-11-30T06:05:39.245Z,-0.01
2023-11-30T06:07:46.028Z,-0.03
2023-11-30T06:09:49.438Z,0.02
2023-11-30T06:11:53.606Z,0.03
2023-11-30T06:13:58.960Z,0.03
2023-11-30T06:16:03.055Z,0.03
2023-11-30T06:18:05.965Z,-0.05
2023-11-30T06:20:11.727Z,-0.05
2023-11-30T06:22:15.033Z,-0.04
2023-11-30T06:24:16.882Z,-0.09
2023-11-30T06:26:20.400Z,-0.08
2023-11-30T06:28:22.188Z,-0.04
2023-11-30T06:30:26.334Z,0.02
2023-11-30T06:32:28.242Z,0.02
2023-11-30T06:34:31.245Z,0.01
2023-11-30T06:36:34.015Z,0.05
2023-11-30T06:38:35.787Z,0.06
2023-11-30T06:40:38.609Z,0.03
2023-11-30T06:42:41.405Z,-0.01
2023-11-30T06:44:46.184Z,0.03
2023-11-30T06:46:50.816Z,0.03
2023-11-30T06:48:54.416Z,0.00
2023-11-30T06:50:57.187Z,0.02
2023-11-30T06:53:00.180Z,0.10
2023-11-30T06:55:03.805Z,0.11
2023-11-30T06:57:05.749Z,0.14
2023-11-30T06:59:08.562Z,0.07
2023-11-30T07:01:11.893Z,0.05
2023-11-30T07:03:16.139Z,0.14
2023-11-30T07:05:19.077Z,0.13
2023-11-30T07:07:31.080Z,0.12
2023-11-30T07:09:38.643Z,0.15
2023-11-30T07:11:41.586Z,0.13
2023-11-30T07:13:44.569Z,0.15
2023-11-30T07:15:47.431Z,0.09
2023-11-30T07:17:50.284Z,0.10
2023-11-30T07:19:54.898Z,0.08
2023-11-30T07:21:57.730Z,0.02
2023-11-30T07:24:00.821Z,0.00
2023-11-30T07:26:06.978Z,0.04
2023-11-30T07:28:09.824Z,0.11
2023-11-30T07:30:13.034Z,0.13
2023-11-30T07:32:16.530Z,0.19
2023-11-30T07:34:19.659Z,0.20
2023-11-30T07:36:23.824Z,0.21
2023-11-30T07:38:26.594Z,0.26
2023-11-30T07:40:29.359Z,0.23
2023-11-30T07:42:37.022Z,0.22
2023-11-30T07:44:40.576Z,0.25
2023-11-30T07:46:43.413Z,0.25
2023-11-30T07:48:46.215Z,0.30
2023-11-30T07:50:48.977Z,0.36
2023-11-30T07:52:53.463Z,0.35
2023-11-30T07:54:56.210Z,0.32
2023-11-30T07:57:01.408Z,0.33
2023-11-30T07:59:04.145Z,0.40
2023-11-30T08:01:07.491Z,0.41
2023-11-30T08:03:10.314Z,0.44
2023-11-30T08:05:13.651Z,0.50
2023-11-30T08:07:15.933Z,0.54
2023-11-30T08:09:21.248Z,0.63
2023-11-30T08:11:24.045Z,0.69
2023-11-30T08:13:26.978Z,0.76
2023-11-30T08:15:28.775Z,0.77
2023-11-30T08:17:31.882Z,0.81
2023-11-30T08:19:34.845Z,0.82
2023-11-30T08:21:41.426Z,0.90
2023-11-30T08:23:44.954Z,0.95
2023-11-30T08:25:49.049Z,0.97
2023-11-30T08:27:54.629Z,1.03
2023-11-30T08:29:57.744Z,1.06
2023-11-30T08:32:00.711Z,1.01
2023-11-30T08:34:03.786Z,1.01
2023-11-30T08:36:07.325Z,1.07
2023-11-30T08:38:10.282Z,1.12
2023-11-30T08:40:13.405Z,1.10
2023-11-30T08:42:17.540Z,1.08
2023-11-30T08:44:20.315Z,1.14
2023-11-30T08:46:23.106Z,1.16
2023-11-30T08:48:26.797Z,1.14
2023-11-30T08:50:30.124Z,1.16
2023-11-30T08:52:32.910Z,1.22
2023-11-30T08:54:35.678Z,1.26
2023-11-30T08:56:38.405Z,1.28
2023-11-30T08:58:42.915Z,1.31
2023-11-30T09:00:45.770Z,1.33
2023-11-30T09:02:47.717Z,1.39
2023-11-30T09:04:50.702Z,1.45
2023-11-30T09:06:53.460Z,1.50
2023-11-30T09:08:56.178Z,1.54
2023-11-30T09:10:58.988Z,1.55
2023-11-30T09:13:03.943Z,1.57
2023-11-30T09:15:10.572Z,1.61
2023-11-30T09:17:13.618Z,1.60
2023-11-30T09:19:15.497Z,1.63
2023-11-30T09:21:18.834Z,1.68
2023-11-30T09:23:22.041Z,1.73
2023-11-30T09:25:24.921Z,1.77
2023-11-30T09:27:27.751Z,1.80
2023-11-30T09:29:30.866Z,1.82
2023-11-30T09:31:34.970Z,1.87
2023-11-30T09:33:37.712Z,1.92
2023-11-30T09:35:40.446Z,1.93
2023-11-30T09:37:42.254Z,1.96
2023-11-30T09:39:45.743Z,1.98
2023-11-30T09:41:48.744Z,1.99
2023-11-30T09:43:51.113Z,1.98
2023-11-30T09:45:55.952Z,2.01
2023-11-30T09:48:00.062Z,2.05
2023-11-30T09:50:02.897Z,2.05
2023-11-30T09:52:05.413Z,2.07
2023-11-30T09:54:08.183Z,2.05
2023-11-30T09:56:12.528Z,2.05
2023-11-30T09:58:16.261Z,2.04
2023-11-30T10:00:21.471Z,2.05
2023-11-30T10:02:26.748Z,2.06
2023-11-30T10:04:31.113Z,2.06
2023-11-30T10:06:33.876Z,2.07
2023-11-30T10:08:35.668Z,2.15
2023-11-30T10:10:38.381Z,2.14
2023-11-30T10:12:41.158Z,2.14
2023-11-30T10:14:43.962Z,2.17
2023-11-30T10:16:46.870Z,2.13
2023-11-30T10:18:50.055Z,2.15
2023-11-30T10:20:54.274Z,2.22
2023-11-30T10:22:57.035Z,2.33
2023-11-30T10:24:59.770Z,2.44
2023-11-30T10:27:07.384Z,2.56
2023-11-30T10:29:12.188Z,2.66
2023-11-30T10:31:18.639Z,2.74
2023-11-30T10:33:24.043Z,2.75
2023-11-30T10:35:29.921Z,2.72
2023-11-30T10:37:35.286Z,2.76
2023-11-30T10:39:43.868Z,2.82
2023-11-30T10:41:53.263Z,2.89
2023-11-30T10:43:57.476Z,2.88
2023-11-30T10:46:01.511Z,2.86
2023-11-30T10:48:04.804Z,2.87
2023-11-30T10:50:09.963Z,2.89
2023-11-30T10:52:13.007Z,2.93
2023-11-30T10:54:24.784Z,2.97
2023-11-30T10:56:28.704Z,2.95
2023-11-30T10:58:34.555Z,2.98
2023-11-30T11:00:37.597Z,2.97
2023-11-30T11:02:45.185Z,2.95
2023-11-30T11:04:48.547Z,2.98
2023-11-30T11:06:50.502Z,2.99
2023-11-30T11:09:03.023Z,2.98
2023-11-30T11:11:11.923Z,2.97
2023-11-30T11:13:20.529Z,3.02
2023-11-30T11:15:24.820Z,3.02
2023-11-30T11:17:29.012Z,3.04
2023-11-30T11:19:33.060Z,2.99
2023-11-30T11:21:40.525Z,2.95
2023-11-30T11:23:44.319Z,2.99
2023-11-30T11:25:48.304Z,3.02
2023-11-30T11:27:52.681Z,3.06
2023-11-30T11:29:56.358Z,3.09
2023-11-30T11:32:00.227Z,3.12
2023-11-30T11:34:03.369Z,3.13
2023-11-30T11:36:06.895Z,3.18
2023-11-30T11:38:10.055Z,3.20
2023-11-30T11:40:13.065Z,3.21
2023-11-30T11:42:15.013Z,3.26
2023-11-30T11:44:20.702Z,3.26
2023-11-30T11:46:24.869Z,3.30
2023-11-30T11:48:27.712Z,3.34
2023-11-30T11:50:30.496Z,3.31
2023-11-30T11:52:33.336Z,3.31
2023-11-30T11:54:36.296Z,3.30
2023-11-30T11:56:46.283Z,3.36
2023-11-30T11:58:49.002Z,3.39
2023-11-30T12:00:57.025Z,3.41
2023-11-30T12:03:07.605Z,3.42
2023-11-30T12:05:11.826Z,3.40
2023-11-30T12:07:17.415Z,3.36
2023-11-30T12:09:20.907Z,3.35
2023-11-30T12:11:23.696Z,3.37
2023-11-30T12:13:28.093Z,3.34
2023-11-30T12:15:31.514Z,3.33
2023-11-30T12:17:35.687Z,3.27
2023-11-30T12:19:38.656Z,3.30
2023-11-30T12:21:41.887Z,3.28
2023-11-30T12:23:44.901Z,3.29
2023-11-30T12:25:47.662Z,3.25
2023-11-30T12:27:51.327Z,3.28
2023-11-30T12:29:54.217Z,3.32
2023-11-30T12:31:57.161Z,3.36
2023-11-30T12:34:01.963Z,3.38
2023-11-30T12:36:05.149Z,3.43
2023-11-30T12:38:08.148Z,3.41
2023-11-30T12:40:11.516Z,3.38
2023-11-30T12:42:14.413Z,3.36
2023-11-30T12:44:17.246Z,3.37
2023-11-30T12:46:21.272Z,3.38
2023-11-30T12:48:24.087Z,3.39
2023-11-30T12:50:28.269Z,3.43
2023-11-30T12:52:31.008Z,3.43
2023-11-30T12:54:33.924Z,3.44
2023-11-30T12:56:36.718Z,3.44
2023-11-30T12:58:38.537Z,3.43
2023-11-30T13:00:42.497Z,3.43
2023-11-30T13:02:48.540Z,3.40
2023-11-30T13:04:52.037Z,3.37
2023-11-30T13:06:56.560Z,3.34
2023-11-30T13:08:59.353Z,3.35
2023-11-30T13:11:02.297Z,3.36
2023-11-30T13:13:06.615Z,3.38
2023-11-30T13:15:12.266Z,3.33
2023-11-30T13:17:17.974Z,3.28
2023-11-30T13:19:24.101Z,3.21
2023-11-30T13:21:28.619Z,3.15
2023-11-30T13:23:32.723Z,3.11
2023-11-30T13:25:35.831Z,3.08
2023-11-30T13:27:39.024Z,3.07
2023-11-30T13:29:41.865Z,3.07
2023-11-30T13:31:44.906Z,3.07
2023-11-30T13:33:47.752Z,3.05
2023-11-30T13:35:50.538Z,3.05
2023-11-30T13:37:53.525Z,3.00
2023-11-30T13:39:57.623Z,3.00
2023-11-30T13:42:00.925Z,3.01
2023-11-30T13:44:02.719Z,3.00
2023-11-30T13:46:06.950Z,3.00
2023-11-30T13:48:09.823Z,2.99
2023-11-30T13:50:25.586Z,2.99
2023-11-30T13:52:33.640Z,3.01
2023-11-30T13:54:36.502Z,3.02
2023-11-30T13:56:40.989Z,3.00
2023-11-30T13:58:43.924Z,2.99
2023-11-30T14:00:46.924Z,2.99
2023-11-30T14:02:49.814Z,2.95
2023-11-30T14:04:52.611Z,2.94
2023-11-30T14:06:58.047Z,2.96
2023-11-30T14:09:00.911Z,2.97
2023-11-30T14:11:04.811Z,2.95
2023-11-30T14:13:09.189Z,2.94
2023-11-30T14:15:13.052Z,2.97
2023-11-30T14:17:17.400Z,2.99
2023-11-30T14:19:20.337Z,2.99
2023-11-30T14:21:23.104Z,2.97
2023-11-30T14:23:25.073Z,3.00
2023-11-30T14:25:29.073Z,3.02
2023-11-30T14:27:31.923Z,3.02
2023-11-30T14:29:35.960Z,3.01
2023-11-30T14:31:38.666Z,2.99
2023-11-30T14:33:40.710Z,2.98
2023-11-30T14:35:43.612Z,2.95
2023-11-30T14:37:45.503Z,2.92
2023-11-30T14:39:48.480Z,2.92
2023-11-30T14:41:51.288Z,2.89
2023-11-30T14:43:53.082Z,2.87
2023-11-30T14:45:57.311Z,2.83
2023-11-30T14:48:01.619Z,2.80
2023-11-30T14:50:05.131Z,2.79
2023-11-30T14:52:08.400Z,2.77
2023-11-30T14:54:11.362Z,2.76
2023-11-30T14:56:13.225Z,2.77
2023-11-30T14:58:16.000Z,2.76
2023-11-30T15:00:22.168Z,2.73
2023-11-30T15:02:26.583Z,2.73
2023-11-30T15:04:29.735Z,2.70
2023-11-30T15:06:33.143Z,2.69
2023-11-30T15:08:36.829Z,2.67
2023-11-30T15:10:39.703Z,2.72
2023-11-30T15:12:42.784Z,2.71
2023-11-30T15:14:45.708Z,2.66
2023-11-30T15:16:49.875Z,2.68
2023-11-30T15:18:54.146Z,2.68
2023-11-30T15:20:56.935Z,2.64
2023-11-30T15:22:59.717Z,2.65
2023-11-30T15:25:01.587Z,2.68
2023-11-30T15:27:04.768Z,2.69
2023-11-30T15:29:07.508Z,2.68
2023-11-30T15:31:10.753Z,2.70
2023-11-30T15:33:14.174Z,2.68
2023-11-30T15:35:18.251Z,2.67
2023-11-30T15:37:21.065Z,2.70
2023-11-30T15:39:25.341Z,2.70
2023-11-30T15:41:28.226Z,2.70
2023-11-30T15:43:31.693Z,2.71
2023-11-30T15:45:34.601Z,2.74
2023-11-30T15:47:37.508Z,2.72
2023-11-30T15:49:41.949Z,2.74
2023-11-30T15:51:49.925Z,2.75
2023-11-30T15:53:52.864Z,2.75
2023-11-30T15:55:55.980Z,2.69
2023-11-30T15:57:58.766Z,2.61
2023-11-30T16:00:01.601Z,2.58
2023-11-30T16:02:15.261Z,2.48
2023-11-30T16:04:18.196Z,2.43
2023-11-30T16:06:21.644Z,2.42
2023-11-30T16:08:25.863Z,2.42
2023-11-30T16:10:28.639Z,2.42
2023-11-30T16:12:31.154Z,2.42
2023-11-30T16:14:34.807Z,2.45
2023-11-30T16:16:40.637Z,2.46
2023-11-30T16:18:43.706Z,2.47
2023-11-30T16:20:46.813Z,2.54
2023-11-30T16:22:49.668Z,2.53
2023-11-30T16:24:54.100Z,2.53
2023-11-30T16:26:57.289Z,2.56
2023-11-30T16:29:00.012Z,2.58
2023-11-30T16:31:03.132Z,2.54
2023-11-30T16:33:06.275Z,2.50
2023-11-30T16:35:09.879Z,2.45
2023-11-30T16:37:13.025Z,2.48
2023-11-30T16:39:16.105Z,2.49
2023-11-30T16:41:20.760Z,2.53
2023-11-30T16:43:23.902Z,2.54
2023-11-30T16:45:27.699Z,2.57
2023-11-30T16:47:31.701Z,2.55
2023-11-30T16:49:34.540Z,2.52
2023-11-30T16:51:41.664Z,2.49
2023-11-30T16:53:46.627Z,2.52
2023-11-30T16:55:49.402Z,2.52
2023-11-30T16:57:53.553Z,2.53
2023-11-30T16:59:55.841Z,2.53
2023-11-30T17:01:59.391Z,2.51
2023-11-30T17:04:03.445Z,2.49
2023-11-30T17:06:06.418Z,2.45
2023-11-30T17:08:09.415Z,2.37
2023-11-30T17:10:11.185Z,2.40
2023-11-30T17:12:13.869Z,2.42
2023-11-30T17:14:18.003Z,2.47
2023-11-30T17:16:19.915Z,2.47
2023-11-30T17:18:22.904Z,2.54
2023-11-30T17:20:25.737Z,2.56
2023-11-30T17:22:28.532Z,2.59
2023-11-30T17:24:33.505Z,2.62
2023-11-30T17:26:36.380Z,2.58
2023-11-30T17:28:38.142Z,2.43
2023-11-30T17:30:42.464Z,2.35
2023-11-30T17:32:45.256Z,2.29
2023-11-30T17:34:48.241Z,2.30
2023-11-30T17:36:51.988Z,2.32
2023-11-30T17:38:54.721Z,2.35
2023-11-30T17:40:57.649Z,2.37
2023-11-30T17:43:00.410Z,2.38
2023-11-30T17:45:03.147Z,2.42
2023-11-30T17:47:07.475Z,2.45
2023-11-30T17:49:10.395Z,2.44
2023-11-30T17:51:18.821Z,2.38
2023-11-30T17:53:21.841Z,2.33
2023-11-30T17:55:24.639Z,2.31
2023-11-30T17:57:27.494Z,2.34
2023-11-30T17:59:30.283Z,2.32
2023-11-30T18:01:33.117Z,2.34
2023-11-30T18:03:37.314Z,2.35
2023-11-30T18:05:41.074Z,2.38
2023-11-30T18:07:43.805Z,2.42
2023-11-30T18:09:47.087Z,2.45
2023-11-30T18:11:49.839Z,2.50
2023-11-30T18:13:52.547Z,2.51
2023-11-30T18:15:56.282Z,2.54
2023-11-30T18:17:59.918Z,2.54
2023-11-30T18:20:04.419Z,2.53
2023-11-30T18:22:07.421Z,2.54
2023-11-30T18:24:10.272Z,2.55
2023-11-30T18:26:13.131Z,2.56
2023-11-30T18:28:15.978Z,2.57
2023-11-30T18:30:19.024Z,2.56
2023-11-30T18:32:21.987Z,2.56
2023-11-30T18:34:24.905Z,2.53
2023-11-30T18:36:29.140Z,2.57
2023-11-30T18:38:37.064Z,2.60
2023-11-30T18:40:43.158Z,2.58
2023-11-30T18:42:46.679Z,2.57
2023-11-30T18:44:49.478Z,2.54
2023-11-30T18:46:52.320Z,2.52
2023-11-30T18:48:55.220Z,2.51
2023-11-30T18:50:58.100Z,2.51
2023-11-30T18:53:02.355Z,2.48
2023-11-30T18:55:05.979Z,2.51
2023-11-30T18:57:08.768Z,2.49
2023-11-30T18:59:11.966Z,2.50
2023-11-30T19:01:16.353Z,2.48
2023-11-30T19:03:19.305Z,2.47
2023-11-30T19:05:22.417Z,2.47
2023-11-30T19:07:25.455Z,2.42
2023-11-30T19:09:29.542Z,2.37
2023-11-30T19:11:32.237Z,2.36
2023-11-30T19:13:36.087Z,2.38
2023-11-30T19:15:42.323Z,2.36
2023-11-30T19:17:49.095Z,2.30
2023-11-30T19:19:52.102Z,2.28
2023-11-30T19:21:54.975Z,2.20
2023-11-30T19:23:57.823Z,2.17
2023-11-30T19:26:01.297Z,2.16
2023-11-30T19:28:04.329Z,2.18
2023-11-30T19:30:08.368Z,2.21
2023-11-30T19:32:11.144Z,2.18
2023-11-30T19:34:15.301Z,2.13
2023-11-30T19:36:18.206Z,2.13
2023-11-30T19:38:27.463Z,2.15
2023-11-30T19:40:30.505Z,2.17
2023-11-30T19:42:34.690Z,2.21
2023-11-30T19:44:37.523Z,2.23
2023-11-30T19:46:40.350Z,2.22
2023-11-30T19:48:45.201Z,2.24
2023-11-30T19:50:48.174Z,2.23
2023-11-30T19:52:50.025Z,2.22
2023-11-30T19:54:52.906Z,2.25
2023-11-30T19:56:57.051Z,2.27
2023-11-30T19:59:02.078Z,2.25
2023-11-30T20:01:04.264Z,2.29
2023-11-30T20:03:07.195Z,2.29
2023-11-30T20:05:10.501Z,2.28
2023-11-30T20:07:13.243Z,2.28
2023-11-30T20:09:16.105Z,2.28
2023-11-30T20:11:20.876Z,2.26
2023-11-30T20:13:23.667Z,2.27
2023-11-30T20:15:29.330Z,2.26
2023-11-30T20:17:31.278Z,2.23
2023-11-30T20:19:36.135Z,2.15
2023-11-30T20:21:37.986Z,2.08
2023-11-30T20:23:40.773Z,2.14
2023-11-30T20:25:43.608Z,2.15
2023-11-30T20:27:45.702Z,2.21
2023-11-30T20:29:48.646Z,2.24
2023-11-30T20:31:52.748Z,2.24
2023-11-30T20:33:55.759Z,2.22
2023-11-30T20:35:59.101Z,2.18
2023-11-30T20:38:02.386Z,2.17
2023-11-30T20:40:05.985Z,2.16
2023-11-30T20:42:09.162Z,2.14
2023-11-30T20:44:16.281Z,2.12
2023-11-30T20:46:20.950Z,2.11
2023-11-30T20:48:26.733Z,2.12
2023-11-30T20:50:29.536Z,2.08
2023-11-30T20:52:34.697Z,2.07
2023-11-30T20:54:38.210Z,2.00
2023-11-30T20:56:41.073Z,1.99
2023-11-30T20:58:46.591Z,1.93
2023-11-30T21:00:51.461Z,1.97
2023-11-30T21:02:54.497Z,2.01
2023-11-30T21:04:58.918Z,1.98
2023-11-30T21:07:01.740Z,1.97
2023-11-30T21:09:05.442Z,1.91
2023-11-30T21:11:08.649Z,1.91
2023-11-30T21:13:11.720Z,1.87
2023-11-30T21:15:15.065Z,1.92
2023-11-30T21:17:18.380Z,1.89
2023-11-30T21:19:21.585Z,1.90
2023-11-30T21:21:24.886Z,1.96
2023-11-30T21:23:27.858Z,2.01
2023-11-30T21:25:31.236Z,2.06
2023-11-30T21:27:34.864Z,2.10
2023-11-30T21:29:37.652Z,2.08
2023-11-30T21:31:40.645Z,2.10
2023-11-30T21:33:43.627Z,2.06
2023-11-30T21:35:45.434Z,2.12
2023-11-30T21:37:49.552Z,2.15
2023-11-30T21:39:52.416Z,2.18
2023-11-30T21:41:55.254Z,2.23
2023-11-30T21:43:58.252Z,2.29
2023-11-30T21:46:01.054Z,2.33
2023-11-30T21:48:04.015Z,2.31
2023-11-30T21:50:15.036Z,2.30
2023-11-30T21:52:18.393Z,2.29
2023-11-30T21:54:22.539Z,2.36
2023-11-30T21:56:25.376Z,2.38
2023-11-30T21:58:28.134Z,2.39
2023-11-30T22:00:31.009Z,2.39
2023-11-30T22:02:33.865Z,2.41
2023-11-30T22:04:36.894Z,2.44
2023-11-30T22:06:40.378Z,2.42
2023-11-30T22:08:43.211Z,2.44
2023-11-30T22:10:47.460Z,2.45
2023-11-30T22:12:49.330Z,2.43
2023-11-30T22:14:52.108Z,2.45
2023-11-30T22:16:54.962Z,2.44
2023-11-30T22:18:58.347Z,2.46
2023-11-30T22:21:01.254Z,2.44
2023-11-30T22:23:04.023Z,2.43
2023-11-30T22:25:07.737Z,2.44
2023-11-30T22:27:10.913Z,2.43
2023-11-30T22:29:13.718Z,2.42
2023-11-30T22:31:16.823Z,2.37
2023-11-30T22:33:19.630Z,2.39
2023-11-30T22:35:22.460Z,2.36
2023-11-30T22:37:25.331Z,2.41
2023-11-30T22:39:28.257Z,2.42
2023-11-30T22:41:30.230Z,2.42
2023-11-30T22:43:34.372Z,2.38
2023-11-30T22:45:37.179Z,2.36
2023-11-30T22:47:40.029Z,2.36
2023-11-30T22:49:42.898Z,2.35
2023-11-30T22:51:46.000Z,2.27
2023-11-30T22:53:48.842Z,2.20
2023-11-30T22:55:51.636Z,2.23
2023-11-30T22:57:54.509Z,2.23
2023-11-30T22:59:58.642Z,2.12
2023-11-30T23:02:01.608Z,2.10
2023-11-30T23:04:04.655Z,2.04
2023-11-30T23:06:07.919Z,2.03
2023-11-30T23:08:10.646Z,2.00
2023-11-30T23:10:17.719Z,1.96
2023-11-30T23:12:20.488Z,1.83
2023-11-30T23:14:23.521Z,1.77
2023-11-30T23:16:28.165Z,1.74
2023-11-30T23:18:32.976Z,1.70
2023-11-30T23:20:35.946Z,1.67
2023-11-30T23:22:38.847Z,1.64
2023-11-30T23:24:42.651Z,1.69
2023-11-30T23:26:45.595Z,1.69
2023-11-30T23:28:48.435Z,1.69
2023-11-30T23:30:51.255Z,1.75
2023-11-30T23:32:55.942Z,1.83
2023-11-30T23:34:58.818Z,1.80
2023-11-30T23:37:01.646Z,1.78
2023-11-30T23:39:05.543Z,1.74
2023-11-30T23:41:07.575Z,1.78
2023-11-30T23:43:10.469Z,1.78
2023-11-30T23:45:13.495Z,1.78
2023-11-30T23:47:16.290Z,1.83
2023-11-30T23:49:20.395Z,1.81
2023-11-30T23:51:23.153Z,1.87
2023-11-30T23:53:26.240Z,1.92
2023-11-30T23:55:29.163Z,1.98
2023-11-30T23:57:32.150Z,2.04
2023-11-30T23:59:35.172Z,2.11
